sensor_id;sensor_type;location;lat;lon;timestamp;pressure;altitude;pressure_sealevel;temperature;humidity
73671;BME280;61968;48.178;11.566;2023-02-12T00:01:31;97580.75;;;4.38;39.13
73671;BME280;61968;48.178;11.566;2023-02-12T00:03:57;97583.69;;;4.35;39.38
73671;BME280;61968;48.178;11.566;2023-02-12T00:06:24;97586.66;;;4.40;39.55
73671;BME280;61968;48.178;11.566;2023-02-12T00:08:51;97590.13;;;4.41;39.68
73671;BME280;61968;48.178;11.566;2023-02-12T00:11:20;97581.97;;;4.44;39.72
73671;BME280;61968;48.178;11.566;2023-02-12T00:13:47;97577.69;;;4.43;39.60
73671;BME280;61968;48.178;11.566;2023-02-12T00:16:17;97575.88;;;4.43;39.98
73671;BME280;61968;48.178;11.566;2023-02-12T00:18:44;97571.34;;;4.45;39.99
73671;BME280;61968;48.178;11.566;2023-02-12T00:21:12;97571.50;;;4.44;40.38
73671;BME280;61968;48.178;11.566;2023-02-12T00:23:39;97582.63;;;4.46;40.46
73671;BME280;61968;48.178;11.566;2023-02-12T00:26:06;97580.84;;;4.46;40.13
73671;BME280;61968;48.178;11.566;2023-02-12T00:28:34;97581.00;;;4.45;40.38
73671;BME280;61968;48.178;11.566;2023-02-12T00:31:04;97584.00;;;4.50;40.30
73671;BME280;61968;48.178;11.566;2023-02-12T00:33:32;97581.22;;;4.52;40.15
73671;BME280;61968;48.178;11.566;2023-02-12T00:35:58;97578.63;;;4.52;39.98
73671;BME280;61968;48.178;11.566;2023-02-12T00:38:25;97586.63;;;4.50;40.08
73671;BME280;61968;48.178;11.566;2023-02-12T00:40:51;97577.69;;;4.43;40.08
73671;BME280;61968;48.178;11.566;2023-02-12T00:43:18;97575.88;;;4.43;40.16
73671;BME280;61968;48.178;11.566;2023-02-12T00:45:44;97579.50;;;4.42;40.05
73671;BME280;61968;48.178;11.566;2023-02-12T00:48:11;97575.81;;;4.35;40.34
73671;BME280;61968;48.178;11.566;2023-02-12T00:50:39;97580.75;;;4.38;40.03
73671;BME280;61968;48.178;11.566;2023-02-12T00:53:06;97588.03;;;4.44;39.83
73671;BME280;61968;48.178;11.566;2023-02-12T00:55:33;97586.94;;;4.47;39.70
73671;BME280;61968;48.178;11.566;2023-02-12T00:57:59;97584.31;;;4.47;39.38
73671;BME280;61968;48.178;11.566;2023-02-12T01:00:26;97600.16;;;4.45;39.50
73671;BME280;61968;48.178;11.566;2023-02-12T01:02:52;97589.69;;;4.45;39.53
73671;BME280;61968;48.178;11.566;2023-02-12T01:05:19;97578.44;;;4.35;39.60
73671;BME280;61968;48.178;11.566;2023-02-12T01:07:49;97581.97;;;4.44;39.27
73671;BME280;61968;48.178;11.566;2023-02-12T01:10:16;97586.53;;;4.42;38.94
73671;BME280;61968;48.178;11.566;2023-02-12T01:12:45;97586.00;;;4.38;39.13
73671;BME280;61968;48.178;11.566;2023-02-12T01:15:13;97585.72;;;4.41;39.08
73671;BME280;61968;48.178;11.566;2023-02-12T01:17:39;97581.97;;;4.44;38.90
73671;BME280;61968;48.178;11.566;2023-02-12T01:20:06;97583.63;;;4.45;38.90
73671;BME280;61968;48.178;11.566;2023-02-12T01:22:34;97584.31;;;4.47;38.74
73671;BME280;61968;48.178;11.566;2023-02-12T01:25:02;97583.91;;;4.42;38.66
73671;BME280;61968;48.178;11.566;2023-02-12T01:27:29;97582.41;;;4.39;38.86
73671;BME280;61968;48.178;11.566;2023-02-12T01:29:55;97579.94;;;4.38;38.91
73671;BME280;61968;48.178;11.566;2023-02-12T01:32:22;97584.03;;;4.40;38.77
73671;BME280;61968;48.178;11.566;2023-02-12T01:34:48;97595.22;;;4.42;38.87
73671;BME280;61968;48.178;11.566;2023-02-12T01:37:15;97594.28;;;4.34;38.96
73671;BME280;61968;48.178;11.566;2023-02-12T01:39:41;97592.34;;;4.36;38.86
73671;BME280;61968;48.178;11.566;2023-02-12T01:42:11;97602.25;;;4.42;38.60
73671;BME280;61968;48.178;11.566;2023-02-12T01:44:42;97592.06;;;4.39;38.65
73671;BME280;61968;48.178;11.566;2023-02-12T01:47:15;97591.91;;;4.40;38.94
73671;BME280;61968;48.178;11.566;2023-02-12T01:49:45;97586.25;;;4.45;38.62
73671;BME280;61968;48.178;11.566;2023-02-12T01:52:14;97593.28;;;4.44;38.84
73671;BME280;61968;48.178;11.566;2023-02-12T01:54:44;97592.00;;;4.49;38.55
73671;BME280;61968;48.178;11.566;2023-02-12T01:57:13;97588.03;;;4.44;39.00
73671;BME280;61968;48.178;11.566;2023-02-12T01:59:42;97591.47;;;4.45;38.71
73671;BME280;61968;48.178;11.566;2023-02-12T02:02:10;97586.38;;;4.43;38.58
73671;BME280;61968;48.178;11.566;2023-02-12T02:04:40;97584.88;;;4.41;38.80
73671;BME280;61968;48.178;11.566;2023-02-12T02:07:09;97582.81;;;4.44;38.63
73671;BME280;61968;48.178;11.566;2023-02-12T02:09:37;97585.72;;;4.41;38.70
73671;BME280;61968;48.178;11.566;2023-02-12T02:12:05;97593.03;;;4.38;38.80
73671;BME280;61968;48.178;11.566;2023-02-12T02:14:53;97588.31;;;4.41;39.04
73671;BME280;61968;48.178;11.566;2023-02-12T02:17:28;97586.25;;;4.45;39.10
73671;BME280;61968;48.178;11.566;2023-02-12T02:20:29;97578.22;;;4.46;39.32
73671;BME280;61968;48.178;11.566;2023-02-12T02:23:22;97576.06;;;4.42;39.57
73671;BME280;61968;48.178;11.566;2023-02-12T02:26:10;97585.72;;;4.41;39.49
73671;BME280;61968;48.178;11.566;2023-02-12T02:28:56;97577.47;;;4.36;39.51
73671;BME280;61968;48.178;11.566;2023-02-12T02:31:30;97572.09;;;4.38;39.40
73671;BME280;61968;48.178;11.566;2023-02-12T02:34:07;97569.59;;;4.36;39.55
73671;BME280;61968;48.178;11.566;2023-02-12T02:36:40;97562.44;;;4.38;39.43
73671;BME280;61968;48.178;11.566;2023-02-12T02:39:14;97564.53;;;4.25;39.49
73671;BME280;61968;48.178;11.566;2023-02-12T02:41:47;97564.25;;;4.28;39.72
73671;BME280;61968;48.178;11.566;2023-02-12T02:44:18;97566.59;;;4.31;39.29
73671;BME280;61968;48.178;11.566;2023-02-12T02:46:49;97562.91;;;4.24;39.43
73671;BME280;61968;48.178;11.566;2023-02-12T02:49:20;97568.38;;;4.31;39.19
73671;BME280;61968;48.178;11.566;2023-02-12T02:51:50;97564.41;;;4.27;39.48
73671;BME280;61968;48.178;11.566;2023-02-12T02:54:20;97559.59;;;4.22;39.30
73671;BME280;61968;48.178;11.566;2023-02-12T02:56:52;97551.16;;;4.28;39.19
73671;BME280;61968;48.178;11.566;2023-02-12T02:59:22;97560.28;;;4.24;39.61
73671;BME280;61968;48.178;11.566;2023-02-12T03:01:53;97564.84;;;4.22;39.79
73671;BME280;61968;48.178;11.566;2023-02-12T03:04:23;97573.09;;;4.27;39.67
73671;BME280;61968;48.178;11.566;2023-02-12T03:06:55;97576.09;;;4.32;39.85
73671;BME280;61968;48.178;11.566;2023-02-12T03:09:29;97578.91;;;4.21;39.69
73671;BME280;61968;48.178;11.566;2023-02-12T03:12:00;97578.09;;;4.20;39.62
73671;BME280;61968;48.178;11.566;2023-02-12T03:14:31;97580.00;;;4.18;39.96
73671;BME280;61968;48.178;11.566;2023-02-12T03:17:02;97575.88;;;4.26;39.80
73671;BME280;61968;48.178;11.566;2023-02-12T03:19:32;97578.31;;;4.27;39.50
73671;BME280;61968;48.178;11.566;2023-02-12T03:22:03;97579.97;;;4.28;39.38
73671;BME280;61968;48.178;11.566;2023-02-12T03:24:35;97584.38;;;4.28;39.52
73671;BME280;61968;48.178;11.566;2023-02-12T03:27:06;97585.78;;;4.22;39.69
73671;BME280;61968;48.178;11.566;2023-02-12T03:29:34;97584.53;;;4.26;39.61
73671;BME280;61968;48.178;11.566;2023-02-12T03:32:11;97582.22;;;4.23;39.78
73671;BME280;61968;48.178;11.566;2023-02-12T03:34:46;97587.44;;;4.23;39.88
73671;BME280;61968;48.178;11.566;2023-02-12T03:37:19;97595.59;;;4.20;39.85
73671;BME280;61968;48.178;11.566;2023-02-12T03:39:53;97589.09;;;4.24;39.43
73671;BME280;61968;48.178;11.566;2023-02-12T03:42:30;97597.94;;;4.23;39.69
73671;BME280;61968;48.178;11.566;2023-02-12T03:45:02;97590.44;;;4.28;39.77
73671;BME280;61968;48.178;11.566;2023-02-12T03:47:39;97594.56;;;4.31;39.55
73671;BME280;61968;48.178;11.566;2023-02-12T03:50:15;97586.88;;;4.29;39.82
73671;BME280;61968;48.178;11.566;2023-02-12T03:52:44;97587.00;;;4.28;39.74
73671;BME280;61968;48.178;11.566;2023-02-12T03:55:14;97587.16;;;4.26;39.76
73671;BME280;61968;48.178;11.566;2023-02-12T03:57:45;97589.91;;;4.24;39.72
73671;BME280;61968;48.178;11.566;2023-02-12T04:00:17;97603.16;;;4.23;39.94
73671;BME280;61968;48.178;11.566;2023-02-12T04:02:45;97601.22;;;4.25;39.83
73671;BME280;61968;48.178;11.566;2023-02-12T04:05:17;97596.66;;;4.27;40.28
73671;BME280;61968;48.178;11.566;2023-02-12T04:07:44;97606.44;;;4.25;39.96
73671;BME280;61968;48.178;11.566;2023-02-12T04:10:11;97612.53;;;4.26;39.97
73671;BME280;61968;48.178;11.566;2023-02-12T04:12:42;97607.13;;;4.27;39.96
73671;BME280;61968;48.178;11.566;2023-02-12T04:15:24;97615.00;;;4.27;40.38
73671;BME280;61968;48.178;11.566;2023-02-12T04:17:57;97609.06;;;4.25;40.46
73671;BME280;61968;48.178;11.566;2023-02-12T04:20:34;97610.31;;;4.21;40.19
73671;BME280;61968;48.178;11.566;2023-02-12T04:23:28;97615.16;;;4.16;40.50
73671;BME280;61968;48.178;11.566;2023-02-12T04:26:07;97609.63;;;4.19;40.62
73671;BME280;61968;48.178;11.566;2023-02-12T04:28:42;97618.31;;;4.19;40.54
73671;BME280;61968;48.178;11.566;2023-02-12T04:31:21;97620.50;;;4.24;40.94
73671;BME280;61968;48.178;11.566;2023-02-12T04:33:59;97616.09;;;4.24;40.71
73671;BME280;61968;48.178;11.566;2023-02-12T04:36:33;97617.50;;;4.19;41.01
73671;BME280;61968;48.178;11.566;2023-02-12T04:39:03;97619.97;;;4.20;41.01
73671;BME280;61968;48.178;11.566;2023-02-12T04:41:32;97620.66;;;4.22;40.58
73671;BME280;61968;48.178;11.566;2023-02-12T04:44:12;97621.22;;;4.16;40.69
73671;BME280;61968;48.178;11.566;2023-02-12T04:46:39;97632.63;;;4.25;40.52
73671;BME280;61968;48.178;11.566;2023-02-12T04:49:12;97638.03;;;4.23;40.64
73671;BME280;61968;48.178;11.566;2023-02-12T04:51:39;97631.97;;;4.23;40.54
73671;BME280;61968;48.178;11.566;2023-02-12T04:54:06;97625.91;;;4.22;40.46
73671;BME280;61968;48.178;11.566;2023-02-12T04:56:32;97629.63;;;4.20;40.50
73671;BME280;61968;48.178;11.566;2023-02-12T04:58:59;97629.34;;;4.23;40.75
73671;BME280;61968;48.178;11.566;2023-02-12T05:01:25;97638.44;;;4.19;40.65
73671;BME280;61968;48.178;11.566;2023-02-12T05:03:52;97633.78;;;4.13;40.84
73671;BME280;61968;48.178;11.566;2023-02-12T05:06:20;97633.78;;;4.13;41.06
73671;BME280;61968;48.178;11.566;2023-02-12T05:08:47;97634.88;;;4.20;40.56
73671;BME280;61968;48.178;11.566;2023-02-12T05:11:13;97634.72;;;4.21;41.16
73671;BME280;61968;48.178;11.566;2023-02-12T05:13:39;97636.50;;;4.21;40.98
73671;BME280;61968;48.178;11.566;2023-02-12T05:16:07;97637.19;;;4.23;40.62
73671;BME280;61968;48.178;11.566;2023-02-12T05:18:34;97641.06;;;4.19;40.69
73671;BME280;61968;48.178;11.566;2023-02-12T05:21:02;97639.53;;;4.16;41.25
73671;BME280;61968;48.178;11.566;2023-02-12T05:23:32;97641.22;;;4.17;41.00
73671;BME280;61968;48.178;11.566;2023-02-12T05:26:01;97640.94;;;4.20;41.25
73671;BME280;61968;48.178;11.566;2023-02-12T05:28:28;97644.50;;;4.19;41.47
73671;BME280;61968;48.178;11.566;2023-02-12T05:30:58;97647.09;;;4.29;40.90
73671;BME280;61968;48.178;11.566;2023-02-12T05:33:25;97657.94;;;4.34;41.24
73671;BME280;61968;48.178;11.566;2023-02-12T05:35:51;97660.47;;;4.26;41.14
73671;BME280;61968;48.178;11.566;2023-02-12T05:38:18;97657.16;;;4.24;41.39
73671;BME280;61968;48.178;11.566;2023-02-12T05:40:46;97659.25;;;4.20;41.44
73671;BME280;61968;48.178;11.566;2023-02-12T05:43:13;97658.84;;;4.15;42.00
73671;BME280;61968;48.178;11.566;2023-02-12T05:45:39;97662.16;;;4.17;42.36
73671;BME280;61968;48.178;11.566;2023-02-12T05:48:08;97663.53;;;4.12;43.11
73671;BME280;61968;48.178;11.566;2023-02-12T05:50:35;97663.78;;;4.18;42.81
73671;BME280;61968;48.178;11.566;2023-02-12T05:53:02;97661.19;;;4.18;42.75
73671;BME280;61968;48.178;11.566;2023-02-12T05:55:28;97666.28;;;4.20;43.00
73671;BME280;61968;48.178;11.566;2023-02-12T05:57:56;97653.47;;;4.17;43.57
73671;BME280;61968;48.178;11.566;2023-02-12T06:00:23;97658.84;;;4.15;43.36
73671;BME280;61968;48.178;11.566;2023-02-12T06:02:49;97658.31;;;4.12;43.85
73671;BME280;61968;48.178;11.566;2023-02-12T06:05:16;97657.50;;;4.11;44.25
73671;BME280;61968;48.178;11.566;2023-02-12T06:07:42;97657.34;;;4.13;44.12
73671;BME280;61968;48.178;11.566;2023-02-12T06:10:10;97662.28;;;4.16;44.36
73671;BME280;61968;48.178;11.566;2023-02-12T06:12:36;97668.66;;;4.04;44.95
73671;BME280;61968;48.178;11.566;2023-02-12T06:15:04;97668.28;;;3.98;45.15
73671;BME280;61968;48.178;11.566;2023-02-12T06:17:32;97665.91;;;4.05;44.91
73671;BME280;61968;48.178;11.566;2023-02-12T06:19:59;97671.28;;;4.04;45.19
73671;BME280;61968;48.178;11.566;2023-02-12T06:22:26;97663.97;;;4.07;45.44
73671;BME280;61968;48.178;11.566;2023-02-12T06:24:52;97676.34;;;5.35;51.33
73671;BME280;61968;48.178;11.566;2023-02-12T06:27:19;97677.69;;;5.21;45.15
73671;BME280;61968;48.178;11.566;2023-02-12T06:29:45;97671.94;;;4.90;44.58
73671;BME280;61968;48.178;11.566;2023-02-12T06:32:13;97673.97;;;4.68;44.71
73671;BME280;61968;48.178;11.566;2023-02-12T06:34:40;97681.47;;;4.54;45.07
73671;BME280;61968;48.178;11.566;2023-02-12T06:37:06;97677.38;;;4.41;45.55
73671;BME280;61968;48.178;11.566;2023-02-12T06:39:33;97691.59;;;4.39;45.68
73671;BME280;61968;48.178;11.566;2023-02-12T06:41:59;97681.97;;;4.30;46.04
73671;BME280;61968;48.178;11.566;2023-02-12T06:44:26;97688.59;;;4.24;46.35
73671;BME280;61968;48.178;11.566;2023-02-12T06:46:52;97695.22;;;4.18;46.17
73671;BME280;61968;48.178;11.566;2023-02-12T06:49:20;97691.09;;;4.16;46.23
73671;BME280;61968;48.178;11.566;2023-02-12T06:51:47;97693.03;;;4.14;46.56
73671;BME280;61968;48.178;11.566;2023-02-12T06:54:15;97694.97;;;4.12;46.26
73671;BME280;61968;48.178;11.566;2023-02-12T06:56:42;97687.81;;;4.14;45.75
73671;BME280;61968;48.178;11.566;2023-02-12T06:59:12;97687.38;;;4.18;46.19
73671;BME280;61968;48.178;11.566;2023-02-12T07:01:39;97688.09;;;4.11;46.43
73671;BME280;61968;48.178;11.566;2023-02-12T07:04:06;97688.38;;;4.08;46.69
73671;BME280;61968;48.178;11.566;2023-02-12T07:06:34;97688.09;;;4.11;46.21
73671;BME280;61968;48.178;11.566;2023-02-12T07:09:01;97688.38;;;4.08;46.67
73671;BME280;61968;48.178;11.566;2023-02-12T07:11:30;97687.81;;;4.14;46.12
73671;BME280;61968;48.178;11.566;2023-02-12T07:13:57;97684.78;;;4.09;46.71
73671;BME280;61968;48.178;11.566;2023-02-12T07:16:25;97685.06;;;4.06;46.20
73671;BME280;61968;48.178;11.566;2023-02-12T07:18:52;97688.50;;;4.06;46.93
73671;BME280;61968;48.178;11.566;2023-02-12T07:21:19;97694.72;;;3.95;47.29
73671;BME280;61968;48.178;11.566;2023-02-12T07:23:48;97700.25;;;3.92;47.61
73671;BME280;61968;48.178;11.566;2023-02-12T07:26:15;97694.00;;;4.03;46.63
73671;BME280;61968;48.178;11.566;2023-02-12T07:28:42;97697.72;;;4.10;46.80
73671;BME280;61968;48.178;11.566;2023-02-12T07:31:11;97687.94;;;4.12;46.60
73671;BME280;61968;48.178;11.566;2023-02-12T07:33:38;97680.94;;;4.03;46.79
73671;BME280;61968;48.178;11.566;2023-02-12T07:36:07;97683.81;;;4.00;47.35
73671;BME280;61968;48.178;11.566;2023-02-12T07:38:34;97685.91;;;3.96;47.40
73671;BME280;61968;48.178;11.566;2023-02-12T07:41:10;97687.25;;;4.00;47.16
73671;BME280;61968;48.178;11.566;2023-02-12T07:43:38;97686.03;;;4.05;47.72
73671;BME280;61968;48.178;11.566;2023-02-12T07:46:06;97687.25;;;4.00;47.69
73671;BME280;61968;48.178;11.566;2023-02-12T07:48:33;97684.81;;;3.99;47.84
73671;BME280;61968;48.178;11.566;2023-02-12T07:51:02;97685.59;;;4.09;47.23
73671;BME280;61968;48.178;11.566;2023-02-12T07:53:29;97684.34;;;4.13;47.44
73671;BME280;61968;48.178;11.566;2023-02-12T07:56:03;97677.34;;;4.14;47.59
73671;BME280;61968;48.178;11.566;2023-02-12T07:58:31;97687.66;;;4.15;47.45
73671;BME280;61968;48.178;11.566;2023-02-12T08:00:58;97687.53;;;4.17;47.50
73671;BME280;61968;48.178;11.566;2023-02-12T08:03:26;97690.81;;;4.19;47.45
73671;BME280;61968;48.178;11.566;2023-02-12T08:05:53;97688.03;;;4.30;47.00
73671;BME280;61968;48.178;11.566;2023-02-12T08:08:19;97678.13;;;4.24;47.28
73671;BME280;61968;48.178;11.566;2023-02-12T08:10:46;97685.97;;;4.24;47.62
73671;BME280;61968;48.178;11.566;2023-02-12T08:13:12;97685.28;;;4.22;47.56
73671;BME280;61968;48.178;11.566;2023-02-12T08:15:40;97691.09;;;4.26;47.33
73671;BME280;61968;48.178;11.566;2023-02-12T08:18:07;97688.28;;;4.37;47.20
73671;BME280;61968;48.178;11.566;2023-02-12T08:20:33;97687.31;;;4.38;47.19
73671;BME280;61968;48.178;11.566;2023-02-12T08:22:59;97677.56;;;4.30;47.74
73671;BME280;61968;48.178;11.566;2023-02-12T08:25:26;97684.44;;;4.31;47.78
73671;BME280;61968;48.178;11.566;2023-02-12T08:27:52;97683.31;;;4.34;47.72
73671;BME280;61968;48.178;11.566;2023-02-12T08:30:19;97685.38;;;4.40;47.17
73671;BME280;61968;48.178;11.566;2023-02-12T08:32:49;97681.94;;;4.39;47.47
73671;BME280;61968;48.178;11.566;2023-02-12T08:35:15;97674.75;;;4.41;47.27
73671;BME280;61968;48.178;11.566;2023-02-12T08:37:42;97674.19;;;4.48;47.32
73671;BME280;61968;48.178;11.566;2023-02-12T08:40:10;97681.06;;;4.49;47.21
73671;BME280;61968;48.178;11.566;2023-02-12T08:42:38;97682.41;;;5.18;48.57
73671;BME280;61968;48.178;11.566;2023-02-12T08:45:05;97681.38;;;5.01;47.24
73671;BME280;61968;48.178;11.566;2023-02-12T08:47:32;97677.31;;;4.88;47.67
73671;BME280;61968;48.178;11.566;2023-02-12T08:50:02;97681.31;;;4.83;47.19
73671;BME280;61968;48.178;11.566;2023-02-12T08:52:28;97688.53;;;4.81;47.14
73671;BME280;61968;48.178;11.566;2023-02-12T08:54:54;97680.44;;;4.74;47.33
73671;BME280;61968;48.178;11.566;2023-02-12T08:57:21;97676.81;;;4.75;47.26
73671;BME280;61968;48.178;11.566;2023-02-12T08:59:48;97676.53;;;4.78;47.14
73671;BME280;61968;48.178;11.566;2023-02-12T09:02:14;97679.84;;;4.80;46.93
73671;BME280;61968;48.178;11.566;2023-02-12T09:04:40;97678.16;;;4.79;47.19
73671;BME280;61968;48.178;11.566;2023-02-12T09:07:08;97682.06;;;4.75;47.19
73671;BME280;61968;48.178;11.566;2023-02-12T09:09:34;97678.16;;;4.79;47.20
73671;BME280;61968;48.178;11.566;2023-02-12T09:12:01;97680.13;;;4.77;47.26
73671;BME280;61968;48.178;11.566;2023-02-12T09:14:27;97677.34;;;4.79;47.33
73671;BME280;61968;48.178;11.566;2023-02-12T09:16:54;97687.41;;;4.83;47.00
73671;BME280;61968;48.178;11.566;2023-02-12T09:19:22;97694.59;;;4.81;47.14
73671;BME280;61968;48.178;11.566;2023-02-12T09:21:53;97687.53;;;4.82;47.06
73671;BME280;61968;48.178;11.566;2023-02-12T09:24:21;97686.72;;;4.81;46.97
73671;BME280;61968;48.178;11.566;2023-02-12T09:26:47;97693.47;;;4.84;47.00
73671;BME280;61968;48.178;11.566;2023-02-12T09:29:14;97694.44;;;4.93;46.79
73671;BME280;61968;48.178;11.566;2023-02-12T09:31:41;97689.78;;;4.86;47.16
73671;BME280;61968;48.178;11.566;2023-02-12T09:34:07;97691.41;;;4.87;47.04
73671;BME280;61968;48.178;11.566;2023-02-12T09:39:56;97694.44;;;4.93;47.01
73671;BME280;61968;48.178;11.566;2023-02-12T09:42:31;97688.34;;;4.92;47.02
73671;BME280;61968;48.178;11.566;2023-02-12T09:45:06;97690.25;;;5.00;47.10
73671;BME280;61968;48.178;11.566;2023-02-12T09:47:41;97686.91;;;5.07;46.55
73671;BME280;61968;48.178;11.566;2023-02-12T09:50:26;97690.88;;;5.11;46.71
73671;BME280;61968;48.178;11.566;2023-02-12T09:52:57;97682.78;;;5.23;46.59
73671;BME280;61968;48.178;11.566;2023-02-12T09:55:28;97695.84;;;5.32;45.98
73671;BME280;61968;48.178;11.566;2023-02-12T09:57:56;97690.88;;;5.29;46.06
73671;BME280;61968;48.178;11.566;2023-02-12T10:00:24;97687.28;;;5.30;45.50
73671;BME280;61968;48.178;11.566;2023-02-12T10:02:53;97690.19;;;5.27;45.35
73671;BME280;61968;48.178;11.566;2023-02-12T10:05:23;97688.66;;;5.34;45.24
73671;BME280;61968;48.178;11.566;2023-02-12T10:08:08;97693.06;;;5.34;45.39
73671;BME280;61968;48.178;11.566;2023-02-12T10:10:48;97694.41;;;5.38;44.91
73671;BME280;61968;48.178;11.566;2023-02-12T10:13:25;97700.50;;;5.38;44.47
73671;BME280;61968;48.178;11.566;2023-02-12T10:15:58;97695.75;;;5.42;44.45
73671;BME280;61968;48.178;11.566;2023-02-12T10:18:41;97699.06;;;5.44;44.40
73671;BME280;61968;48.178;11.566;2023-02-12T10:21:20;97694.66;;;5.45;44.57
73671;BME280;61968;48.178;11.566;2023-02-12T10:24:00;97693.00;;;5.44;44.83
73671;BME280;61968;48.178;11.566;2023-02-12T10:26:35;97696.16;;;5.47;44.65
73671;BME280;61968;48.178;11.566;2023-02-12T10:29:10;97703.19;;;5.47;44.78
73671;BME280;61968;48.178;11.566;2023-02-12T10:31:41;97699.00;;;5.54;44.67
73671;BME280;61968;48.178;11.566;2023-02-12T10:34:15;97700.50;;;5.56;44.41
73671;BME280;61968;48.178;11.566;2023-02-12T10:36:44;97693.56;;;5.55;44.16
73671;BME280;61968;48.178;11.566;2023-02-12T10:39:14;97701.75;;;5.52;44.41
73671;BME280;61968;48.178;11.566;2023-02-12T10:41:46;97696.75;;;5.59;44.20
73671;BME280;61968;48.178;11.566;2023-02-12T10:44:14;97682.94;;;5.57;44.26
73671;BME280;61968;48.178;11.566;2023-02-12T10:46:41;97692.84;;;5.63;44.07
73671;BME280;61968;48.178;11.566;2023-02-12T10:49:07;97694.78;;;5.61;44.10
73671;BME280;61968;48.178;11.566;2023-02-12T10:51:56;97694.78;;;5.61;43.88
73671;BME280;61968;48.178;11.566;2023-02-12T10:54:32;97697.88;;;5.56;43.99
73671;BME280;61968;48.178;11.566;2023-02-12T10:57:13;97692.63;;;5.56;44.16
73671;BME280;61968;48.178;11.566;2023-02-12T10:59:42;97699.72;;;5.64;44.24
73671;BME280;61968;48.178;11.566;2023-02-12T11:02:19;97691.56;;;5.67;43.64
73671;BME280;61968;48.178;11.566;2023-02-12T11:04:47;97690.53;;;5.60;43.50
73671;BME280;61968;48.178;11.566;2023-02-12T11:07:14;97695.38;;;5.91;45.13
73671;BME280;61968;48.178;11.566;2023-02-12T11:09:43;97692.66;;;5.82;43.54
73671;BME280;61968;48.178;11.566;2023-02-12T11:12:27;97690.50;;;5.78;43.69
73671;BME280;61968;48.178;11.566;2023-02-12T11:14:57;97685.47;;;5.84;43.60
73671;BME280;61968;48.178;11.566;2023-02-12T11:17:26;97685.34;;;5.86;43.32
73671;BME280;61968;48.178;11.566;2023-02-12T11:20:25;97674.16;;;5.84;43.24
73671;BME280;61968;48.178;11.566;2023-02-12T11:22:54;97680.22;;;5.84;43.58
73671;BME280;61968;48.178;11.566;2023-02-12T11:25:22;97676.78;;;5.84;43.75
73671;BME280;61968;48.178;11.566;2023-02-12T11:28:03;97674.34;;;5.91;43.17
73671;BME280;61968;48.178;11.566;2023-02-12T11:30:31;97673.75;;;5.97;43.22
73671;BME280;61968;48.178;11.566;2023-02-12T11:33:14;97667.38;;;5.99;43.09
73671;BME280;61968;48.178;11.566;2023-02-12T11:35:48;97671.13;;;5.97;43.05
73671;BME280;61968;48.178;11.566;2023-02-12T11:38:22;97673.13;;;6.03;42.90
73671;BME280;61968;48.178;11.566;2023-02-12T11:40:50;97668.38;;;6.06;43.31
73671;BME280;61968;48.178;11.566;2023-02-12T11:43:20;97677.25;;;6.05;42.54
73671;BME280;61968;48.178;11.566;2023-02-12T11:45:50;97671.75;;;6.17;42.15
73671;BME280;61968;48.178;11.566;2023-02-12T11:48:23;97667.84;;;6.21;42.58
73671;BME280;61968;48.178;11.566;2023-02-12T11:50:52;97659.72;;;6.32;42.53
73671;BME280;61968;48.178;11.566;2023-02-12T11:53:22;97662.25;;;6.42;42.47
73671;BME280;61968;48.178;11.566;2023-02-12T11:55:55;97667.50;;;6.42;41.86
73671;BME280;61968;48.178;11.566;2023-02-12T11:58:25;97658.78;;;6.41;42.33
73671;BME280;61968;48.178;11.566;2023-02-12T12:00:57;97659.66;;;6.50;42.11
73671;BME280;61968;48.178;11.566;2023-02-12T12:03:30;97653.09;;;6.96;53.71
73671;BME280;61968;48.178;11.566;2023-02-12T12:06:04;97651.66;;;8.25;49.04
73671;BME280;61968;48.178;11.566;2023-02-12T12:08:36;97635.97;;;8.95;43.97
73671;BME280;61968;48.178;11.566;2023-02-12T12:11:09;97636.75;;;8.65;40.63
73671;BME280;61968;48.178;11.566;2023-02-12T12:13:43;97632.03;;;8.44;39.11
73671;BME280;61968;48.178;11.566;2023-02-12T12:16:18;97636.56;;;8.10;38.94
73671;BME280;61968;48.178;11.566;2023-02-12T12:19:10;97635.75;;;7.85;40.31
73671;BME280;61968;48.178;11.566;2023-02-12T12:22:07;97631.00;;;7.56;39.80
73671;BME280;61968;48.178;11.566;2023-02-12T12:24:42;97635.28;;;7.57;40.74
73671;BME280;61968;48.178;11.566;2023-02-12T12:27:18;97627.41;;;7.65;40.03
73671;BME280;61968;48.178;11.566;2023-02-12T12:30:11;97629.19;;;7.73;40.06
73671;BME280;61968;48.178;11.566;2023-02-12T12:32:44;97645.16;;;7.55;50.09
73671;BME280;61968;48.178;11.566;2023-02-12T12:35:14;97637.22;;;9.08;40.71
73671;BME280;61968;48.178;11.566;2023-02-12T12:37:47;97639.88;;;8.60;40.30
73671;BME280;61968;48.178;11.566;2023-02-12T12:40:30;97631.59;;;8.24;39.88
73671;BME280;61968;48.178;11.566;2023-02-12T12:43:07;97629.00;;;7.99;39.61
73671;BME280;61968;48.178;11.566;2023-02-12T12:51:35;97624.41;;;7.93;40.55
73671;BME280;61968;48.178;11.566;2023-02-12T12:54:16;97627.19;;;8.00;40.22
73671;BME280;61968;48.178;11.566;2023-02-12T12:56:57;97632.13;;;7.95;40.33
73671;BME280;61968;48.178;11.566;2023-02-12T12:59:39;97628.53;;;7.96;40.84
73671;BME280;61968;48.178;11.566;2023-02-12T13:05:29;97621.78;;;7.93;39.73
73671;BME280;61968;48.178;11.566;2023-02-12T13:08:03;97627.72;;;7.95;39.88
73671;BME280;61968;48.178;11.566;2023-02-12T13:10:37;97624.75;;;7.90;39.33
73671;BME280;61968;48.178;11.566;2023-02-12T13:13:14;97621.44;;;7.96;39.28
73671;BME280;61968;48.178;11.566;2023-02-12T13:15:49;97622.59;;;7.94;39.07
73671;BME280;61968;48.178;11.566;2023-02-12T13:18:30;97613.56;;;7.80;39.66
73671;BME280;61968;48.178;11.566;2023-02-12T13:21:05;97607.31;;;7.89;39.71
73671;BME280;61968;48.178;11.566;2023-02-12T13:23:38;97612.38;;;7.91;39.23
73671;BME280;61968;48.178;11.566;2023-02-12T13:26:15;97614.06;;;7.83;40.04
73671;BME280;61968;48.178;11.566;2023-02-12T13:28:46;97615.53;;;7.78;39.67
73671;BME280;61968;48.178;11.566;2023-02-12T13:31:18;97619.16;;;7.77;39.15